createdAt,value
2023-03-17T00:02:13.933Z,98972.16
2023-03-17T00:05:25.654Z,98961.78
2023-03-17T00:08:36.157Z,98963.50
2023-03-17T00:11:41.540Z,98971.31
2023-03-17T00:14:47.823Z,98965.31
2023-03-17T00:17:59.859Z,98969.69
2023-03-17T00:21:06.272Z,98972.28
2023-03-17T00:24:16.141Z,98956.06
2023-03-17T00:27:22.601Z,98979.25
2023-03-17T00:30:31.008Z,98975.00
2023-03-17T00:33:40.757Z,98973.31
2023-03-17T00:36:52.000Z,98975.03
2023-03-17T00:39:58.206Z,98987.16
2023-03-17T00:43:04.341Z,98972.53
2023-03-17T00:46:17.778Z,98956.41
2023-03-17T00:49:28.637Z,98979.47
2023-03-17T00:52:34.942Z,98980.38
2023-03-17T00:55:41.632Z,98971.78
2023-03-17T00:58:51.788Z,98971.78
2023-03-17T01:01:58.119Z,98963.16
2023-03-17T01:05:07.928Z,98958.88
2023-03-17T01:08:13.452Z,98954.56
2023-03-17T01:11:24.158Z,98951.97
2023-03-17T01:14:29.590Z,98956.28
2023-03-17T01:17:35.999Z,98958.00
2023-03-17T01:20:45.012Z,98944.25
2023-03-17T01:23:51.538Z,98940.81
2023-03-17T01:26:56.870Z,98943.38
2023-03-17T01:30:03.052Z,98942.56
2023-03-17T01:33:11.510Z,98932.25
2023-03-17T01:36:20.831Z,98935.66
2023-03-17T01:39:27.717Z,98940.81
2023-03-17T01:42:34.251Z,98938.31
2023-03-17T01:46:25.534Z,98928.88
2023-03-17T01:49:38.370Z,98936.63
2023-03-17T01:52:48.197Z,98928.94
2023-03-17T01:55:56.994Z,98933.38
2023-03-17T01:59:10.836Z,98942.97
2023-03-17T02:02:25.872Z,98936.16
2023-03-17T02:05:34.325Z,98920.81
2023-03-17T02:08:44.541Z,98935.31
2023-03-17T02:11:50.875Z,98921.53
2023-03-17T02:14:57.530Z,98924.13
2023-03-17T02:18:03.913Z,98917.28
2023-03-17T02:21:41.128Z,98910.38
2023-03-17T02:24:54.888Z,98905.22
2023-03-17T02:28:10.764Z,98898.31
2023-03-17T02:31:16.729Z,98888.84
2023-03-17T02:34:23.583Z,98892.28
2023-03-17T02:37:31.769Z,98900.00
2023-03-17T02:40:39.167Z,98886.28
2023-03-17T02:43:44.608Z,98881.13
2023-03-17T02:46:51.264Z,98884.59
2023-03-17T02:49:58.398Z,98877.69
2023-03-17T02:53:08.391Z,98877.69
2023-03-17T02:56:14.791Z,98869.91
2023-03-17T02:59:21.071Z,98855.28
2023-03-17T03:02:26.480Z,98855.28
2023-03-17T03:05:32.694Z,98864.81
2023-03-17T03:08:40.867Z,98872.50
2023-03-17T03:11:48.244Z,98888.91
2023-03-17T03:14:53.884Z,98890.59
2023-03-17T03:18:00.403Z,98893.16
2023-03-17T03:21:06.659Z,98892.28
2023-03-17T03:24:16.270Z,98893.16
2023-03-17T03:27:21.821Z,98890.47
2023-03-17T03:30:28.536Z,98888.78
2023-03-17T03:33:34.387Z,98884.47
2023-03-17T03:36:40.715Z,98877.66
2023-03-17T03:39:49.034Z,98885.41
2023-03-17T03:42:55.553Z,98904.44
2023-03-17T03:46:01.102Z,98899.28
2023-03-17T03:49:07.657Z,98891.69
2023-03-17T03:52:13.223Z,98920.91
2023-03-17T03:55:22.706Z,98908.84
2023-03-17T03:58:28.088Z,98902.84
2023-03-17T04:01:34.554Z,98905.47
2023-03-17T04:04:40.003Z,98889.13
2023-03-17T04:07:47.987Z,98891.72
2023-03-17T04:10:56.130Z,98871.03
2023-03-17T04:14:02.824Z,98877.03
2023-03-17T04:17:09.211Z,98883.06
2023-03-17T04:20:18.508Z,98777.06
2023-03-17T04:23:24.037Z,98877.88
2023-03-17T04:26:33.110Z,98872.72
2023-03-17T04:29:38.667Z,98865.84
2023-03-17T04:32:45.126Z,98876.22
2023-03-17T04:35:50.905Z,98883.16
2023-03-17T04:38:57.292Z,98883.16
2023-03-17T04:42:05.463Z,98893.47
2023-03-17T04:45:17.030Z,98893.44
2023-03-17T04:48:22.702Z,98889.19
2023-03-17T04:51:29.166Z,98904.72
2023-03-17T04:54:34.566Z,98891.00
2023-03-17T04:57:43.865Z,98899.59
2023-03-17T05:00:49.308Z,98895.31
2023-03-17T05:03:55.552Z,98909.91
2023-03-17T05:07:01.430Z,98908.16
2023-03-17T05:10:08.684Z,98908.94
2023-03-17T05:13:16.789Z,98900.22
2023-03-17T05:16:23.180Z,98907.91
2023-03-17T05:19:28.667Z,98904.38
2023-03-17T05:22:34.885Z,98905.19
2023-03-17T05:25:40.704Z,98902.53
2023-03-17T05:28:49.875Z,98893.81
2023-03-17T05:31:55.289Z,98896.38
2023-03-17T05:35:01.655Z,98898.09
2023-03-17T05:38:07.544Z,98906.72
2023-03-17T05:41:14.257Z,98893.81
2023-03-17T05:44:23.367Z,98903.31
2023-03-17T05:47:30.640Z,98898.13
2023-03-17T05:50:36.689Z,98886.09
2023-03-17T05:53:43.580Z,98898.88
2023-03-17T05:56:49.060Z,98907.44
2023-03-17T05:59:58.178Z,98909.84
2023-03-17T06:03:04.093Z,98909.72
2023-03-17T06:06:10.759Z,98914.75
2023-03-17T06:09:16.349Z,98914.56
2023-03-17T06:12:22.656Z,98911.81
2023-03-17T06:15:31.019Z,98910.81
2023-03-17T06:18:37.535Z,98911.53
2023-03-17T06:21:42.996Z,98916.56
2023-03-17T06:24:49.602Z,98903.44
2023-03-17T06:27:56.419Z,98911.00
2023-03-17T06:31:07.312Z,98908.28
2023-03-17T06:34:12.950Z,98909.75
2023-03-17T06:37:19.537Z,98903.72
2023-03-17T06:40:24.977Z,98914.81
2023-03-17T06:43:32.140Z,98905.06
2023-03-17T06:46:40.382Z,98900.53
2023-03-17T06:49:47.017Z,98908.19
2023-03-17T06:52:52.545Z,98903.69
2023-03-17T06:55:59.373Z,98907.00
2023-03-17T06:59:05.155Z,98903.38
2023-03-17T07:02:15.684Z,98916.94
2023-03-17T07:05:21.599Z,98919.28
2023-03-17T07:08:30.913Z,98933.59
2023-03-17T07:11:36.715Z,98931.44
2023-03-17T07:14:43.058Z,98935.34
2023-03-17T07:17:51.305Z,98929.06
2023-03-17T07:20:57.622Z,98922.66
2023-03-17T07:24:04.668Z,98931.06
2023-03-17T07:27:11.344Z,98931.63
2023-03-17T07:30:19.387Z,98924.38
2023-03-17T07:33:28.763Z,98925.75
2023-03-17T07:36:34.384Z,98922.06
2023-03-17T07:39:41.394Z,98925.25
2023-03-17T07:42:46.934Z,98925.88
2023-03-17T07:45:53.381Z,98941.22
2023-03-17T07:49:01.908Z,98919.28
2023-03-17T07:52:09.145Z,98932.81
2023-03-17T07:55:14.750Z,98935.97
2023-03-17T07:58:21.894Z,98926.06
2023-03-17T08:01:27.967Z,98937.06
2023-03-17T08:04:37.781Z,98925.53
2023-03-17T08:07:43.615Z,98924.44
2023-03-17T08:10:49.946Z,98924.06
2023-03-17T08:13:55.390Z,98919.41
2023-03-17T08:17:01.699Z,98919.97
2023-03-17T08:20:11.828Z,98921.25
2023-03-17T08:23:19.007Z,98917.44
2023-03-17T08:26:24.825Z,98914.56
2023-03-17T08:29:31.465Z,98896.91
2023-03-17T08:32:37.307Z,98900.97
2023-03-17T08:35:47.189Z,98898.00
2023-03-17T08:38:53.507Z,98897.59
2023-03-17T08:42:00.229Z,98902.53
2023-03-17T08:45:06.912Z,98900.53
2023-03-17T08:48:13.662Z,98883.88
2023-03-17T08:51:24.786Z,98884.59
2023-03-17T08:54:31.068Z,98873.06
2023-03-17T08:57:36.635Z,98866.78
2023-03-17T09:00:43.083Z,98870.91
2023-03-17T09:03:48.824Z,98859.41
2023-03-17T09:07:03.820Z,98859.66
2023-03-17T09:10:13.845Z,98854.19
2023-03-17T09:13:20.154Z,98856.66
2023-03-17T09:16:27.256Z,98867.59
2023-03-17T09:19:33.730Z,98863.81
2023-03-17T09:22:42.656Z,98866.00
2023-03-17T09:25:48.927Z,98863.06
2023-03-17T09:28:54.689Z,98854.91
2023-03-17T09:32:00.941Z,98869.38
2023-03-17T09:35:07.194Z,98855.03
2023-03-17T09:38:16.281Z,98845.00
2023-03-17T09:42:04.823Z,98844.50
2023-03-17T09:45:34.698Z,98844.81
2023-03-17T09:49:01.082Z,98825.06
2023-03-17T09:52:08.621Z,98832.44
2023-03-17T09:55:31.492Z,98826.78
2023-03-17T09:58:42.292Z,98820.41
2023-03-17T10:01:48.284Z,98831.47
2023-03-17T10:04:54.989Z,98832.69
2023-03-17T10:08:29.917Z,98827.69
2023-03-17T10:11:46.426Z,98821.59
2023-03-17T10:15:04.584Z,98822.72
2023-03-17T10:18:18.728Z,98818.72
2023-03-17T10:21:32.440Z,98814.72
2023-03-17T10:24:54.868Z,98820.38
2023-03-17T10:28:11.662Z,98820.78
2023-03-17T10:31:23.058Z,98821.84
2023-03-17T10:34:32.998Z,98831.59
2023-03-17T10:37:39.385Z,98811.84
2023-03-17T10:40:51.433Z,98816.44
2023-03-17T10:44:01.884Z,98815.84
2023-03-17T10:47:07.331Z,98803.16
2023-03-17T10:50:29.216Z,98809.63
2023-03-17T10:53:44.014Z,98814.31
2023-03-17T10:56:54.852Z,98810.34
2023-03-17T11:00:05.617Z,98793.84
2023-03-17T11:03:21.603Z,98791.88
2023-03-17T11:06:42.275Z,98771.28
2023-03-17T11:09:53.907Z,98721.91
2023-03-17T11:13:04.747Z,98764.50
2023-03-17T11:16:27.490Z,98750.84
2023-03-17T11:19:52.170Z,98745.81
2023-03-17T11:23:10.867Z,98736.84
2023-03-17T11:26:42.356Z,98746.09
2023-03-17T11:30:17.737Z,98755.41
2023-03-17T11:33:42.373Z,98752.84
2023-03-17T11:37:02.595Z,98741.47
2023-03-17T11:40:26.717Z,98747.53
2023-03-17T11:43:46.979Z,98746.91
2023-03-17T11:47:06.918Z,98759.53
2023-03-17T11:50:32.195Z,98738.09
2023-03-17T11:54:13.563Z,98727.88
2023-03-17T11:57:30.367Z,98724.59
2023-03-17T12:00:43.860Z,98719.22
2023-03-17T12:04:03.365Z,98696.09
2023-03-17T12:07:27.954Z,98723.00
2023-03-17T12:10:44.101Z,98716.50
2023-03-17T12:13:57.863Z,98715.16
2023-03-17T12:17:19.229Z,98710.66
2023-03-17T12:20:36.878Z,98708.78
2023-03-17T12:23:52.581Z,98705.38
2023-03-17T12:27:06.197Z,98701.25
2023-03-17T12:30:30.787Z,98695.69
2023-03-17T12:33:52.090Z,98695.25
2023-03-17T12:36:59.525Z,98682.56
2023-03-17T12:40:18.944Z,98681.22
2023-03-17T12:43:43.163Z,98677.97
2023-03-17T12:47:24.137Z,98672.69
2023-03-17T12:51:06.756Z,98667.41
2023-03-17T12:54:23.241Z,98670.97
2023-03-17T12:57:43.993Z,98666.75
2023-03-17T13:00:59.599Z,98659.53
2023-03-17T13:04:22.275Z,98662.91
2023-03-17T13:07:36.148Z,98656.31
2023-03-17T13:10:48.319Z,98646.25
2023-03-17T13:14:19.040Z,98651.03
2023-03-17T13:17:37.712Z,98620.34
2023-03-17T13:20:48.190Z,98633.50
2023-03-17T13:24:40.059Z,98626.22
2023-03-17T13:27:50.263Z,98632.72
2023-03-17T13:31:16.875Z,98632.91
2023-03-17T13:34:23.953Z,98619.19
2023-03-17T13:37:37.868Z,98638.91
2023-03-17T13:41:05.968Z,98629.88
2023-03-17T13:44:48.402Z,98633.88
2023-03-17T13:48:17.018Z,98623.44
2023-03-17T13:51:28.814Z,98611.63
2023-03-17T13:54:38.205Z,98619.22
2023-03-17T13:57:44.580Z,98617.50
2023-03-17T14:00:58.998Z,98603.00
2023-03-17T14:04:20.575Z,98599.09
2023-03-17T14:07:32.727Z,98587.63
2023-03-17T14:10:39.071Z,98582.53
2023-03-17T14:13:56.854Z,98575.38
2023-03-17T14:17:16.699Z,98580.63
2023-03-17T14:20:30.864Z,98572.19
2023-03-17T14:23:37.700Z,98563.75
2023-03-17T14:26:43.192Z,98561.22
2023-03-17T14:29:50.502Z,98547.19
2023-03-17T14:33:07.453Z,98560.16
2023-03-17T14:36:17.159Z,98553.59
2023-03-17T14:39:28.985Z,98512.34
2023-03-17T14:42:35.996Z,98559.22
2023-03-17T14:45:53.203Z,98551.25
2023-03-17T14:49:04.966Z,98554.66
2023-03-17T14:52:24.212Z,98553.59
2023-03-17T14:55:43.393Z,98543.88
2023-03-17T14:58:54.601Z,98517.28
2023-03-17T15:02:04.211Z,98516.22
2023-03-17T15:05:29.374Z,98521.69
2023-03-17T15:08:49.275Z,98524.94
2023-03-17T15:11:59.924Z,98519.13
2023-03-17T15:15:18.127Z,98505.97
2023-03-17T15:18:25.640Z,98513.09
2023-03-17T15:21:41.014Z,98509.53
2023-03-17T15:25:01.210Z,98504.47
2023-03-17T15:28:15.660Z,98524.59
2023-03-17T15:31:23.823Z,98516.69
2023-03-17T15:34:30.694Z,98514.91
2023-03-17T15:37:38.183Z,98522.91
2023-03-17T15:40:47.343Z,98516.78
2023-03-17T15:43:53.858Z,98516.78
2023-03-17T15:47:00.155Z,98513.41
2023-03-17T15:50:19.435Z,98515.41
2023-03-17T15:53:26.269Z,98514.66
2023-03-17T15:56:34.694Z,98523.31
2023-03-17T15:59:41.083Z,98515.31
2023-03-17T16:02:48.023Z,98512.56
2023-03-17T16:05:54.461Z,98512.56
2023-03-17T16:08:59.978Z,98509.00
2023-03-17T16:12:12.286Z,98504.13
2023-03-17T16:15:23.525Z,98510.63
2023-03-17T16:18:37.998Z,98513.38
2023-03-17T16:21:43.590Z,98507.16
2023-03-17T16:24:50.249Z,98518.94
2023-03-17T16:28:01.864Z,98505.13
2023-03-17T16:31:22.639Z,98507.94
2023-03-17T16:34:29.290Z,98502.31
2023-03-17T16:37:35.575Z,98502.72
2023-03-17T16:40:42.836Z,98505.84
2023-03-17T16:43:56.086Z,98481.53
2023-03-17T16:47:01.530Z,98499.94
2023-03-17T16:50:17.754Z,98499.59
2023-03-17T16:53:23.478Z,98505.41
2023-03-17T16:56:31.752Z,98499.00
2023-03-17T16:59:40.081Z,98508.41
2023-03-17T17:02:49.621Z,98515.16
2023-03-17T17:05:55.258Z,98505.47
2023-03-17T17:09:01.538Z,98511.72
2023-03-17T17:12:07.801Z,98513.38
2023-03-17T17:15:19.788Z,98519.38
2023-03-17T17:18:26.752Z,98514.66
2023-03-17T17:21:34.100Z,98525.69
2023-03-17T17:24:39.635Z,98534.09
2023-03-17T17:27:48.772Z,98530.31
2023-03-17T17:30:58.738Z,98539.44
2023-03-17T17:34:05.063Z,98529.44
2023-03-17T17:37:12.961Z,98522.84
2023-03-17T17:40:24.693Z,98523.34
2023-03-17T17:43:30.220Z,98519.56
2023-03-17T17:46:39.499Z,98525.13
2023-03-17T17:49:44.989Z,98515.91
2023-03-17T17:52:51.297Z,98520.56
2023-03-17T17:55:58.049Z,98522.66
2023-03-17T17:59:04.682Z,98523.81
2023-03-17T18:02:14.257Z,98523.41
2023-03-17T18:05:20.898Z,98520.25
2023-03-17T18:08:27.721Z,98523.13
2023-03-17T18:11:34.347Z,98519.22
2023-03-17T18:14:40.448Z,98514.97
2023-03-17T18:17:49.541Z,98516.16
2023-03-17T18:20:55.907Z,98507.84
2023-03-17T18:24:02.841Z,98510.81
2023-03-17T18:27:08.968Z,98512.88
2023-03-17T18:30:23.989Z,98509.66
2023-03-17T18:33:32.607Z,98516.91
2023-03-17T18:36:39.304Z,98512.66
2023-03-17T18:39:55.508Z,98517.19
2023-03-17T18:43:12.141Z,98505.22
2023-03-17T18:46:17.670Z,98516.56
2023-03-17T18:49:28.391Z,98509.88
2023-03-17T18:52:35.278Z,98521.28
2023-03-17T18:55:41.657Z,98516.94
2023-03-17T18:58:47.420Z,98505.66
2023-03-17T19:01:53.853Z,98500.56
2023-03-17T19:05:02.679Z,98494.63
2023-03-17T19:08:09.602Z,98497.50
2023-03-17T19:11:21.987Z,98497.16
2023-03-17T19:14:28.300Z,98490.59
2023-03-17T19:17:33.937Z,98488.22
2023-03-17T19:20:43.235Z,98483.16
2023-03-17T19:23:48.876Z,98485.16
2023-03-17T19:26:55.404Z,98484.47
2023-03-17T19:30:00.898Z,98484.66
2023-03-17T19:33:08.272Z,98484.13
2023-03-17T19:36:16.920Z,98487.03
2023-03-17T19:39:24.679Z,98482.13
2023-03-17T19:42:30.279Z,98483.25
2023-03-17T19:45:37.217Z,98480.84
2023-03-17T19:48:43.373Z,98475.78
2023-03-17T19:51:53.437Z,98472.59
2023-03-17T19:54:58.915Z,98476.28
2023-03-17T19:58:06.794Z,98474.81
2023-03-17T20:01:13.149Z,98467.19
2023-03-17T20:04:22.212Z,98462.09
2023-03-17T20:07:32.897Z,98464.09
2023-03-17T20:10:39.480Z,98467.75
2023-03-17T20:13:44.958Z,98465.34
2023-03-17T20:16:52.195Z,98462.81
2023-03-17T20:19:58.338Z,98474.28
2023-03-17T20:23:08.082Z,98471.84
2023-03-17T20:26:14.435Z,98465.09
2023-03-17T20:29:20.955Z,98469.44
2023-03-17T20:32:27.857Z,98468.72
2023-03-17T20:35:35.035Z,98475.81
2023-03-17T20:38:44.001Z,98472.41
2023-03-17T20:41:51.907Z,98467.41
2023-03-17T20:44:57.597Z,98469.28
2023-03-17T20:48:05.463Z,98457.28
2023-03-17T20:51:15.789Z,98460.94
2023-03-17T20:54:25.315Z,98467.22
2023-03-17T20:57:30.849Z,98463.03
2023-03-17T21:00:37.280Z,98464.88
2023-03-17T21:03:43.502Z,98466.75
2023-03-17T21:06:50.552Z,98461.75
2023-03-17T21:10:00.843Z,98461.88
2023-03-17T21:13:07.529Z,98464.72
2023-03-17T21:16:19.118Z,98469.28
2023-03-17T21:19:25.574Z,98465.94
2023-03-17T21:22:32.699Z,98472.31
2023-03-17T21:25:41.999Z,98465.59
2023-03-17T21:28:49.230Z,98468.31
2023-03-17T21:31:56.965Z,98469.44
2023-03-17T21:35:02.449Z,98474.84
2023-03-17T21:38:09.126Z,98472.50
2023-03-17T21:41:34.895Z,98470.78
2023-03-17T21:44:42.321Z,98430.22
2023-03-17T21:47:47.880Z,98473.59
2023-03-17T21:50:54.551Z,98471.13
2023-03-17T21:54:00.811Z,98466.09
2023-03-17T21:57:12.027Z,98468.06
2023-03-17T22:00:18.767Z,98459.56
2023-03-17T22:03:25.223Z,98463.16
2023-03-17T22:06:30.794Z,98465.84
2023-03-17T22:09:37.869Z,98464.13
2023-03-17T22:12:46.070Z,98471.19
2023-03-17T22:15:52.728Z,98466.88
2023-03-17T22:18:58.634Z,98464.25
2023-03-17T22:22:05.286Z,98470.38
2023-03-17T22:25:11.735Z,98473.78
2023-03-17T22:28:21.781Z,98471.19
2023-03-17T22:31:30.971Z,98462.50
2023-03-17T22:34:37.600Z,98470.38
2023-03-17T22:37:44.188Z,98470.44
2023-03-17T22:40:50.384Z,98473.91
2023-03-17T22:43:58.700Z,98472.19
2023-03-17T22:47:05.162Z,98468.81
2023-03-17T22:50:13.142Z,98478.50
2023-03-17T22:53:19.752Z,98473.28
2023-03-17T22:56:26.353Z,98463.13
2023-03-17T22:59:35.679Z,98464.00
2023-03-17T23:02:41.375Z,98464.09
2023-03-17T23:05:49.997Z,98457.31
2023-03-17T23:08:56.230Z,98454.03
2023-03-17T23:12:02.893Z,98456.59
2023-03-17T23:15:13.630Z,98452.22
2023-03-17T23:18:21.112Z,98450.53
2023-03-17T23:21:34.065Z,98457.41
2023-03-17T23:24:40.362Z,98447.00
2023-03-17T23:27:46.062Z,98450.41
2023-03-17T23:30:55.856Z,98449.56
2023-03-17T23:34:01.618Z,98433.38
2023-03-17T23:37:08.253Z,98447.16
2023-03-17T23:40:17.434Z,98398.50
2023-03-17T23:43:23.853Z,98448.69
2023-03-17T23:46:32.043Z,98441.78
2023-03-17T23:49:38.518Z,98444.47
2023-03-17T23:52:45.153Z,98445.44
2023-03-17T23:55:52.958Z,98445.44
2023-03-17T23:58:58.393Z,98445.56
